Time;durP1;ratioP1;P1;durP2;ratioP2;P2;SDS_P1;SDS_P2;PMS_P1;PMS_P2;Temp;Humidity;BMP_temperature;BMP_pressure;BME280_temperature;BME280_humidity;BME280_pressure;Samples;Min_cycle;Max_cycle;Signal;HPM_P1;HPM_P2
2023/10/18 00:01:06;;;;;;;35.50;16.20;;;;;;;5.21;68.65;101762.56;107589;1255;107635;-60
2023/10/18 00:03:42;;;;;;;25.90;14.80;;;;;;;5.17;68.41;101757.23;107541;1252;97852;-60
2023/10/18 00:06:16;;;;;;;28.50;15.30;;;;;;;5.15;68.68;101757.02;107597;1251;97733;-60
2023/10/18 00:08:45;;;;;;;32.10;16.40;;;;;;;5.13;68.72;101757.98;107583;1251;111693;-60
2023/10/18 00:11:17;;;;;;;30.80;16.60;;;;;;;5.12;68.70;101753.93;107617;1253;110030;-61
2023/10/18 00:13:50;;;;;;;33.90;15.40;;;;;;;5.10;68.89;101752.64;107603;1252;106391;-59
2023/10/18 00:16:18;;;;;;;32.90;17.30;;;;;;;5.08;69.11;101756.13;107568;1253;97752;-61
2023/10/18 00:18:46;;;;;;;33.20;16.10;;;;;;;5.07;69.07;101754.05;107602;1255;97828;-60
2023/10/18 00:21:15;;;;;;;32.40;16.00;;;;;;;5.06;69.19;101757.09;107572;1253;110872;-60
2023/10/18 00:23:44;;;;;;;34.00;16.30;;;;;;;5.04;68.93;101755.94;107581;1253;109617;-60
2023/10/18 00:26:12;;;;;;;29.80;14.80;;;;;;;5.04;69.14;101750.78;107541;1252;108058;-60
2023/10/18 00:28:41;;;;;;;34.30;18.00;;;;;;;5.04;69.25;101748.46;107524;1252;97853;-60
2023/10/18 00:31:20;;;;;;;32.70;16.00;;;;;;;5.05;69.24;101743.45;107616;1252;98351;-61
2023/10/18 00:33:49;;;;;;;31.90;16.10;;;;;;;5.05;69.03;101736.35;107596;1252;110293;-59
2023/10/18 00:36:18;;;;;;;30.30;16.60;;;;;;;5.01;68.97;101736.17;107641;1253;109864;-59
2023/10/18 00:38:47;;;;;;;35.30;15.20;;;;;;;4.99;69.14;101734.14;107558;1252;107821;-60
2023/10/18 00:41:21;;;;;;;35.50;16.30;;;;;;;4.95;69.11;101730.77;107552;1253;98023;-59
2023/10/18 00:43:52;;;;;;;36.20;16.40;;;;;;;4.91;69.27;101725.85;107663;1253;97852;-59
2023/10/18 00:46:22;;;;;;;28.50;15.80;;;;;;;4.87;69.07;101719.59;107602;1253;111640;-61
2023/10/18 00:48:51;;;;;;;32.40;16.80;;;;;;;4.82;69.03;101722.36;107553;1253;110212;-58
2023/10/18 00:51:24;;;;;;;34.70;17.80;;;;;;;4.80;69.18;101713.91;107581;1253;106915;-60
2023/10/18 00:53:52;;;;;;;40.50;16.90;;;;;;;4.77;69.42;101711.73;107584;1255;97929;-61
2023/10/18 00:56:21;;;;;;;37.20;17.40;;;;;;;4.74;69.36;101715.61;107584;1252;98381;-60
2023/10/18 00:58:53;;;;;;;36.60;16.70;;;;;;;4.70;69.32;101715.10;107568;1252;111000;-61
2023/10/18 01:01:23;;;;;;;37.80;15.60;;;;;;;4.67;69.42;101711.67;107608;1251;109356;-61
2023/10/18 01:03:52;;;;;;;31.60;16.30;;;;;;;4.64;69.34;101709.88;107538;1251;107639;-60
2023/10/18 01:06:28;;;;;;;33.60;17.30;;;;;;;4.61;69.30;101708.95;107577;1251;97823;-60
2023/10/18 01:08:58;;;;;;;28.30;14.90;;;;;;;4.58;69.52;101713.73;107564;1251;97738;-60
2023/10/18 01:11:30;;;;;;;30.70;15.80;;;;;;;4.55;69.44;101712.60;107569;1251;112933;-61
2023/10/18 01:14:00;;;;;;;32.90;16.10;;;;;;;4.53;69.55;101714.48;107620;1255;108659;-61
2023/10/18 01:16:31;;;;;;;38.70;16.90;;;;;;;4.51;69.49;101713.87;107662;1253;107607;-58
2023/10/18 01:19:01;;;;;;;29.10;15.80;;;;;;;4.52;69.71;101714.03;107600;1253;97844;-60
2023/10/18 01:21:32;;;;;;;27.90;15.00;;;;;;;4.51;69.80;101708.01;107602;1251;97720;-60
2023/10/18 01:24:01;;;;;;;28.10;15.90;;;;;;;4.50;69.91;101708.77;107604;1253;111926;-61
2023/10/18 01:26:36;;;;;;;32.80;15.40;;;;;;;4.48;69.91;101704.06;107566;1250;109432;-59
2023/10/18 01:29:08;;;;;;;30.30;15.40;;;;;;;4.45;69.77;101699.80;107614;1253;108356;-62
2023/10/18 01:31:45;;;;;;;31.10;15.70;;;;;;;4.41;69.85;101706.55;107605;1253;97833;-62
2023/10/18 01:34:14;;;;;;;32.10;15.70;;;;;;;4.37;69.87;101707.95;107604;1252;97901;-62
2023/10/18 01:36:43;;;;;;;25.50;15.90;;;;;;;4.34;69.87;101706.85;107557;1253;110492;-61
2023/10/18 01:39:21;;;;;;;25.10;14.20;;;;;;;4.32;70.05;101709.27;107656;1254;108608;-60
2023/10/18 01:41:55;;;;;;;30.80;14.90;;;;;;;4.29;70.13;101708.70;107596;1253;107459;-60
2023/10/18 01:44:35;;;;;;;;;;;;;;;4.26;70.02;101706.38;107567;1254;97936;-61
2023/10/18 01:49:46;;;;;;;31.20;14.60;;;;;;;4.18;70.00;101707.29;107590;1253;111521;-59
2023/10/18 01:52:18;;;;;;;35.30;15.40;;;;;;;4.12;70.01;101705.42;107624;1251;108014;-59
2023/10/18 01:54:47;;;;;;;50.20;14.30;;;;;;;4.03;69.97;101705.80;107575;1251;108539;-59
2023/10/18 01:57:17;;;;;;;29.20;13.60;;;;;;;3.97;69.80;101702.72;107551;1251;97933;-59
2023/10/18 01:59:49;;;;;;;29.80;14.30;;;;;;;3.94;70.07;101706.39;107518;1251;97828;-61
2023/10/18 02:02:19;;;;;;;29.60;13.10;;;;;;;3.93;70.09;101707.00;107543;1251;111028;-60
2023/10/18 02:04:49;;;;;;;31.40;12.80;;;;;;;3.91;70.10;101708.48;107610;1251;110082;-60
2023/10/18 02:07:21;;;;;;;30.50;14.10;;;;;;;3.90;70.14;101710.66;107577;1251;108491;-59
2023/10/18 02:09:57;;;;;;;23.90;13.40;;;;;;;3.88;70.27;101711.30;107611;1251;97861;-61
2023/10/18 02:12:27;;;;;;;28.10;15.60;;;;;;;3.86;70.44;101710.84;107615;1251;97708;-59
2023/10/18 02:14:56;;;;;;;26.90;13.40;;;;;;;3.84;70.21;101708.45;107587;1253;112188;-61
2023/10/18 02:17:24;;;;;;;23.50;12.60;;;;;;;3.84;70.28;101709.36;107540;1251;109117;-60
2023/10/18 02:19:54;;;;;;;30.30;14.00;;;;;;;3.80;70.31;101713.77;107602;1252;108150;-61
2023/10/18 02:22:22;;;;;;;23.50;13.00;;;;;;;3.77;70.50;101708.77;107574;1251;97842;-60
2023/10/18 02:24:53;;;;;;;34.50;13.10;;;;;;;3.75;70.30;101706.39;107552;1253;97902;-60
2023/10/18 02:27:23;;;;;;;25.00;11.80;;;;;;;3.70;70.16;101702.14;107628;1253;110692;-60
2023/10/18 02:29:52;;;;;;;28.70;12.60;;;;;;;3.65;70.09;101699.91;107572;1253;109489;-61
2023/10/18 02:32:23;;;;;;;23.00;12.60;;;;;;;3.54;69.90;101697.92;107632;1251;106441;-60
2023/10/18 02:34:52;;;;;;;29.80;13.10;;;;;;;3.48;69.99;101693.54;107481;1253;97836;-61
2023/10/18 02:37:24;;;;;;;22.10;11.30;;;;;;;3.44;70.36;101691.60;107584;1252;97833;-60
2023/10/18 02:40:07;;;;;;;22.90;12.30;;;;;;;3.39;70.39;101688.60;107566;1252;111905;-61
2023/10/18 02:42:38;;;;;;;32.70;13.10;;;;;;;3.35;70.47;101687.39;107592;1251;108623;-60
2023/10/18 02:45:17;;;;;;;21.50;11.70;;;;;;;3.34;70.43;101685.28;107568;1251;108220;-61
2023/10/18 02:47:45;;;;;;;23.70;12.00;;;;;;;3.33;70.46;101682.15;107564;1253;97827;-61
2023/10/18 02:50:14;;;;;;;24.60;11.90;;;;;;;3.30;70.41;101681.22;107552;1252;97976;-61
2023/10/18 02:52:46;;;;;;;21.20;10.50;;;;;;;3.30;70.54;101679.09;107587;1253;111350;-60
2023/10/18 02:55:18;;;;;;;21.50;11.50;;;;;;;3.25;70.39;101678.39;107588;1253;110151;-60
2023/10/18 02:57:49;;;;;;;22.80;12.20;;;;;;;3.19;70.40;101678.69;107559;1253;108631;-60
2023/10/18 03:00:18;;;;;;;23.60;12.30;;;;;;;3.14;70.51;101672.67;107526;1253;97835;-60
2023/10/18 03:02:48;;;;;;;21.70;10.90;;;;;;;3.09;70.59;101671.47;107630;1253;97794;-59
2023/10/18 03:05:20;;;;;;;23.20;11.20;;;;;;;3.07;70.69;101666.22;107550;1251;110139;-60
2023/10/18 03:07:49;;;;;;;23.10;9.80;;;;;;;3.07;70.77;101666.42;107598;1252;109725;-59
2023/10/18 03:10:32;;;;;;;27.70;11.20;;;;;;;3.05;70.66;101662.60;107511;1252;107986;-61
2023/10/18 03:13:01;;;;;;;24.90;11.20;;;;;;;3.02;70.63;101662.88;107568;1253;97816;-62
2023/10/18 03:15:29;;;;;;;15.40;9.60;;;;;;;3.00;70.81;101661.73;107620;1251;97855;-60
2023/10/18 03:18:00;;;;;;;15.60;10.50;;;;;;;2.99;70.92;101659.66;107583;1253;111445;-60
2023/10/18 03:20:28;;;;;;;16.00;10.20;;;;;;;3.00;70.80;101653.25;107619;1253;108833;-62
2023/10/18 03:23:02;;;;;;;19.30;10.30;;;;;;;3.01;70.98;101649.14;107551;1253;107319;-60
2023/10/18 03:25:31;;;;;;;19.30;10.20;;;;;;;3.00;71.03;101646.69;107592;1253;97932;-60
2023/10/18 03:28:04;;;;;;;25.90;10.70;;;;;;;2.95;70.99;101643.16;107529;1251;98377;-60
2023/10/18 03:30:46;;;;;;;15.10;9.90;;;;;;;2.89;70.84;101641.66;107568;1251;110664;-60
2023/10/18 03:33:15;;;;;;;28.60;10.90;;;;;;;2.84;70.85;101642.77;107549;1251;108840;-61
2023/10/18 03:36:06;;;;;;;22.30;10.60;;;;;;;2.79;71.02;101640.84;107543;1253;107381;-62
2023/10/18 03:38:54;;;;;;;23.00;11.00;;;;;;;2.76;70.89;101639.56;107546;1253;97921;-60
2023/10/18 03:41:25;;;;;;;18.80;10.30;;;;;;;2.73;70.95;101637.55;107550;1251;97932;-61
2023/10/18 03:44:03;;;;;;;25.40;10.00;;;;;;;2.70;70.94;101635.54;107584;1256;110910;-59
2023/10/18 03:46:38;;;;;;;25.80;10.70;;;;;;;2.67;71.02;101631.56;107539;1252;109472;-60
2023/10/18 03:49:10;;;;;;;18.90;10.80;;;;;;;2.65;71.14;101635.73;107520;1254;106858;-59
2023/10/18 03:51:40;;;;;;;26.40;10.40;;;;;;;2.65;71.36;101632.91;107546;1252;97859;-60
2023/10/18 03:54:13;;;;;;;15.40;9.30;;;;;;;2.63;71.32;101633.73;107557;1252;97716;-60
2023/10/18 03:56:45;;;;;;;25.50;12.40;;;;;;;2.59;71.29;101631.37;107548;1255;111161;-59
2023/10/18 03:59:20;;;;;;;21.10;11.40;;;;;;;2.58;71.11;101628.75;107532;1255;108784;-59
2023/10/18 04:04:38;;;;;;;25.70;10.40;;;;;;;2.53;71.16;101631.11;107585;1251;97829;-61
2023/10/18 04:07:12;;;;;;;24.10;9.80;;;;;;;2.51;71.40;101634.71;107547;1252;97854;-60
2023/10/18 04:10:13;;;;;;;25.20;11.10;;;;;;;2.50;71.38;101634.56;107586;1251;112303;-61
2023/10/18 04:12:43;;;;;;;17.80;9.10;;;;;;;2.50;71.54;101634.02;107575;1251;109475;-59
2023/10/18 04:15:23;;;;;;;21.70;11.00;;;;;;;2.49;71.28;101629.67;107561;1253;107439;-61
2023/10/18 04:20:52;;;;;;;23.10;13.30;;;;;;;2.49;71.41;101630.38;107241;1252;97935;-62
2023/10/18 04:23:25;;;;;;;27.90;11.60;;;;;;;2.48;71.68;101627.92;107572;1251;111799;-63
2023/10/18 04:25:58;;;;;;;44.90;16.50;;;;;;;2.48;71.61;101628.64;107571;1253;108549;-61
2023/10/18 04:28:29;;;;;;;47.00;27.50;;;;;;;2.49;71.68;101629.15;107541;1252;106625;-61
2023/10/18 04:31:01;;;;;;;37.40;12.30;;;;;;;2.47;71.71;101630.97;107528;1253;97832;-61
2023/10/18 04:33:43;;;;;;;23.30;11.20;;;;;;;2.43;71.63;101635.95;107570;1253;97704;-60
2023/10/18 04:36:13;;;;;;;23.60;10.50;;;;;;;2.41;71.62;101638.16;107559;1252;110914;-61
2023/10/18 04:38:44;;;;;;;19.80;10.90;;;;;;;2.40;71.67;101639.96;107514;1253;109850;-60
2023/10/18 04:41:28;;;;;;;25.50;10.30;;;;;;;2.38;71.83;101637.20;107521;1253;107573;-61
2023/10/18 04:44:10;;;;;;;37.10;14.30;;;;;;;2.37;71.79;101643.80;107537;1253;97979;-61
2023/10/18 04:46:38;;;;;;;28.50;10.50;;;;;;;2.41;72.02;101642.92;107572;1253;97746;-61
2023/10/18 04:54:35;;;;;;;27.00;11.80;;;;;;;2.55;72.31;101648.53;107545;1253;107164;-61
2023/10/18 04:57:10;;;;;;;27.40;12.00;;;;;;;2.58;72.10;101647.73;107506;1252;97707;-60
2023/10/18 04:59:45;;;;;;;22.80;12.40;;;;;;;2.61;72.37;101648.29;107498;1253;97730;-60
2023/10/18 05:02:17;;;;;;;23.50;11.50;;;;;;;2.64;72.32;101650.63;107596;1251;111944;-60
2023/10/18 05:04:46;;;;;;;25.20;11.40;;;;;;;2.68;72.15;101647.69;107540;1253;109853;-60
2023/10/18 05:07:19;;;;;;;31.10;10.20;;;;;;;2.70;72.21;101651.14;107576;1254;107316;-62
2023/10/18 05:09:55;;;;;;;26.00;10.30;;;;;;;2.74;72.24;101646.36;107547;1253;97820;-61
2023/10/18 05:15:16;;;;;;;26.90;14.50;;;;;;;2.78;72.23;101653.45;107552;1252;112012;-61
2023/10/18 05:17:47;;;;;;;25.80;11.30;;;;;;;2.78;72.17;101656.45;107522;1253;108839;-60
2023/10/18 05:22:52;;;;;;;25.80;10.80;;;;;;;2.88;72.35;101660.66;107594;1253;97719;-60
2023/10/18 05:44:00;;;;;;;23.80;10.40;;;;;;;3.23;72.95;101653.65;107497;1253;109237;-61
2023/10/18 05:46:38;;;;;;;23.70;11.10;;;;;;;3.31;72.96;101658.11;107522;1255;107689;-61
2023/10/18 05:49:23;;;;;;;18.30;9.60;;;;;;;3.39;73.20;101658.10;107516;1253;97841;-59
2023/10/18 05:52:15;;;;;;;18.10;9.70;;;;;;;3.52;73.63;101656.30;107495;1253;97709;-57
2023/10/18 05:54:43;;;;;;;24.90;10.70;;;;;;;3.66;73.45;101653.93;107534;1253;111468;-59
2023/10/18 05:57:16;;;;;;;16.00;10.00;;;;;;;3.72;73.39;101658.79;107545;1251;108644;-58
2023/10/18 05:59:48;;;;;;;18.20;10.20;;;;;;;3.81;73.31;101653.77;107508;1253;108203;-58
2023/10/18 06:02:23;;;;;;;22.30;10.40;;;;;;;3.89;73.23;101655.50;107521;1253;97768;-60
2023/10/18 06:04:55;;;;;;;21.20;10.20;;;;;;;3.99;73.53;101652.59;107503;1253;97716;-58
2023/10/18 06:07:24;;;;;;;20.40;9.50;;;;;;;4.10;73.50;101650.83;107521;1251;111649;-63
2023/10/18 06:12:27;;;;;;;20.00;10.80;;;;;;;4.24;73.24;101650.36;107504;1253;107177;-62
2023/10/18 06:14:57;;;;;;;21.40;10.00;;;;;;;4.31;73.42;101646.63;107500;1256;97967;-62
2023/10/18 06:17:26;;;;;;;24.20;10.20;;;;;;;4.40;73.36;101653.16;107518;1255;98364;-63
2023/10/18 06:19:56;;;;;;;19.10;9.20;;;;;;;4.48;73.26;101645.64;107513;1253;112028;-63
2023/10/18 06:22:28;;;;;;;28.80;9.70;;;;;;;4.57;73.41;101642.36;107486;1253;108783;-62
2023/10/18 06:25:03;;;;;;;26.00;10.40;;;;;;;4.66;73.45;101642.77;107493;1251;106885;-61
2023/10/18 06:27:41;;;;;;;19.80;9.90;;;;;;;4.77;73.19;101646.02;107479;1255;97742;-61
2023/10/18 06:30:14;;;;;;;19.70;8.70;;;;;;;4.86;73.22;101644.48;107484;1255;97905;-63
2023/10/18 06:32:46;;;;;;;18.30;8.90;;;;;;;4.94;73.36;101646.02;107592;1251;111188;-63
2023/10/18 06:35:17;;;;;;;24.30;11.50;;;;;;;5.02;73.30;101647.42;107475;1252;109965;-62
2023/10/18 06:37:46;;;;;;;29.50;10.40;;;;;;;5.13;73.15;101641.50;107541;1254;107236;-62
2023/10/18 06:43:03;;;;;;;19.70;10.90;;;;;;;5.33;73.28;101637.45;107527;1252;97674;-60
2023/10/18 06:45:33;;;;;;;32.90;12.30;;;;;;;5.44;73.18;101641.31;107484;1252;110661;-63
2023/10/18 06:48:03;;;;;;;29.30;11.00;;;;;;;5.56;73.13;101641.90;107516;1255;109944;-62
2023/10/18 06:50:32;;;;;;;26.30;12.00;;;;;;;5.66;73.20;101639.48;107490;1253;108350;-62
2023/10/18 06:53:06;;;;;;;24.80;12.00;;;;;;;5.72;72.68;101641.98;107500;1252;97930;-62
2023/10/18 06:58:13;;;;;;;23.30;10.70;;;;;;;5.92;72.64;101636.60;107507;1251;111777;-62
2023/10/18 07:00:47;;;;;;;21.20;10.20;;;;;;;6.02;72.36;101627.18;107550;1255;108530;-63
2023/10/18 07:03:18;;;;;;;24.00;10.00;;;;;;;6.13;72.16;101629.61;107526;1253;107609;-66
2023/10/18 07:05:50;;;;;;;25.90;9.30;;;;;;;6.24;72.21;101627.55;107503;1251;97831;-62
2023/10/18 07:08:19;;;;;;;20.00;9.70;;;;;;;6.34;72.07;101627.73;107480;1253;97826;-63
2023/10/18 07:10:57;;;;;;;17.80;9.10;;;;;;;6.43;71.72;101625.41;107535;1251;110994;-62
2023/10/18 07:13:50;;;;;;;24.60;9.40;;;;;;;6.55;71.56;101622.61;107517;1253;108590;-63
2023/10/18 07:16:33;;;;;;;17.40;10.20;;;;;;;6.64;71.27;101621.55;107561;1253;107872;-64
2023/10/18 07:21:49;;;;;;;19.50;9.00;;;;;;;6.97;70.60;101614.09;107472;1255;97958;-61
2023/10/18 07:24:18;;;;;;;21.60;8.50;;;;;;;7.06;70.58;101613.17;107536;1251;111510;-61
2023/10/18 07:26:47;;;;;;;16.60;9.00;;;;;;;7.19;70.34;101611.89;107549;1255;109292;-63
2023/10/18 07:29:16;;;;;;;26.10;8.70;;;;;;;7.32;70.44;101612.15;107461;1253;108176;-61
2023/10/18 07:31:45;;;;;;;16.20;7.90;;;;;;;7.46;70.14;101610.40;107453;1253;97711;-62
2023/10/18 07:34:28;;;;;;;14.10;7.60;;;;;;;7.59;69.78;101613.74;107527;1253;97848;-61
2023/10/18 07:37:00;;;;;;;20.80;7.60;;;;;;;7.71;69.39;101603.70;107499;1254;111928;-63
2023/10/18 07:39:32;;;;;;;18.80;8.30;;;;;;;7.83;68.75;101602.20;107486;1253;109557;-62
2023/10/18 07:42:05;;;;;;;14.70;7.00;;;;;;;7.96;68.54;101597.27;107489;1251;107529;-63
2023/10/18 07:44:33;;;;;;;14.70;6.70;;;;;;;8.12;68.29;101596.09;107554;1251;97813;-62
2023/10/18 07:47:01;;;;;;;30.30;8.20;;;;;;;8.29;68.45;101588.74;107466;1255;98343;-62
2023/10/18 07:49:31;;;;;;;14.90;7.00;;;;;;;8.51;68.26;101587.64;107503;1253;111624;-63
2023/10/18 07:52:00;;;;;;;17.80;6.80;;;;;;;8.71;67.92;101582.41;107490;1251;109404;-63
2023/10/18 07:54:28;;;;;;;21.20;7.20;;;;;;;8.87;67.39;101576.63;107496;1254;107950;-62
2023/10/18 07:56:57;;;;;;;13.10;6.80;;;;;;;9.03;67.14;101574.84;107488;1256;97830;-63
2023/10/18 08:04:42;;;;;;;25.10;7.50;;;;;;;9.55;63.09;101561.89;107463;1255;108718;-62
2023/10/18 08:07:15;;;;;;;21.60;8.30;;;;;;;9.76;63.99;101557.77;107508;1251;107653;-64
2023/10/18 08:09:44;;;;;;;19.40;6.90;;;;;;;10.00;63.18;101556.20;107508;1253;97850;-62
2023/10/18 08:12:30;;;;;;;18.30;7.80;;;;;;;10.17;62.91;101548.13;107458;1255;97816;-62
2023/10/18 08:14:59;;;;;;;13.10;6.40;;;;;;;10.37;62.49;101550.36;107529;1251;111426;-63
2023/10/18 08:17:42;;;;;;;26.60;7.50;;;;;;;10.58;61.09;101540.23;107547;1254;110064;-62
2023/10/18 08:22:51;;;;;;;21.20;7.20;;;;;;;10.97;59.98;101530.45;107528;1253;97852;-62
2023/10/18 08:25:31;;;;;;;24.60;8.00;;;;;;;11.18;59.81;101528.09;107606;1254;97709;-62
2023/10/18 08:28:01;;;;;;;24.20;6.50;;;;;;;11.43;59.90;101525.00;107522;1255;110850;-62
2023/10/18 08:31:02;;;;;;;24.40;7.20;;;;;;;11.66;58.50;101520.86;107494;1253;109072;-61
2023/10/18 08:33:27;;;;;;;22.90;7.20;;;;;;;11.93;57.07;101518.67;107584;1256;105886;-61
2023/10/18 08:35:58;;;;;;;21.30;8.30;;;;;;;12.14;56.53;101516.27;107527;1252;97821;-62
2023/10/18 08:38:26;;;;;;;26.40;6.80;;;;;;;12.35;55.44;101512.72;107446;1253;98439;-63
2023/10/18 08:41:11;;;;;;;18.00;6.70;;;;;;;12.57;55.97;101508.68;107503;1255;112472;-61
2023/10/18 08:43:58;;;;;;;15.00;6.40;;;;;;;12.88;55.95;101507.48;107583;1254;109197;-61
2023/10/18 08:46:27;;;;;;;21.60;6.90;;;;;;;13.20;55.40;101507.71;107520;1253;107590;-63
2023/10/18 08:48:57;;;;;;;17.60;5.90;;;;;;;13.51;55.05;101503.42;107491;1253;97739;-62
2023/10/18 08:51:27;;;;;;;16.00;5.40;;;;;;;13.85;54.82;101507.25;107590;1256;97812;-61
2023/10/18 08:54:01;;;;;;;12.50;4.90;;;;;;;14.22;53.57;101504.06;107492;1255;112004;-63
2023/10/18 08:56:33;;;;;;;12.40;4.70;;;;;;;14.63;52.04;101500.32;107586;1253;109102;-61
2023/10/18 08:59:10;;;;;;;12.00;4.20;;;;;;;15.25;52.46;101500.50;107588;1255;106698;-62
2023/10/18 09:02:01;;;;;;;18.10;4.40;;;;;;;16.08;48.09;101498.80;107492;1256;97824;-62
2023/10/18 09:04:28;;;;;;;10.20;3.20;;;;;;;16.97;46.75;101496.95;107541;1256;97828;-62
2023/10/18 09:07:00;;;;;;;11.50;3.30;;;;;;;17.73;43.68;101492.43;107601;1251;111793;-62
2023/10/18 09:09:35;;;;;;;6.30;2.50;;;;;;;18.34;41.85;101496.17;107551;1251;109664;-62
2023/10/18 09:12:14;;;;;;;6.10;2.50;;;;;;;18.85;40.51;101484.75;107482;1256;108148;-62
2023/10/18 09:14:50;;;;;;;6.20;3.10;;;;;;;19.30;40.39;101483.84;107518;1256;97839;-62
2023/10/18 09:17:22;;;;;;;8.80;3.00;;;;;;;19.70;38.53;101482.54;107620;1255;98392;-62
2023/10/18 09:19:55;;;;;;;6.60;2.70;;;;;;;20.06;37.67;101487.63;107585;1255;110825;-61
2023/10/18 09:22:23;;;;;;;6.00;2.90;;;;;;;20.59;37.64;101484.08;107540;1254;108501;-62
2023/10/18 09:24:54;;;;;;;8.50;3.10;;;;;;;20.97;36.67;101477.98;107592;1250;107979;-62
2023/10/18 09:27:23;;;;;;;14.40;4.00;;;;;;;21.50;34.86;101473.28;107517;1255;97840;-62
2023/10/18 09:29:51;;;;;;;10.90;2.60;;;;;;;21.81;35.22;101470.57;107557;1255;97841;-63
2023/10/18 09:32:32;;;;;;;7.30;2.10;;;;;;;22.12;34.69;101469.00;107575;1255;111245;-63
2023/10/18 09:35:08;;;;;;;6.60;2.90;;;;;;;22.04;32.97;101468.02;107586;1251;108748;-64
2023/10/18 09:37:36;;;;;;;8.30;2.80;;;;;;;22.22;34.18;101457.34;107604;1256;107137;-63
2023/10/18 09:40:06;;;;;;;12.20;2.70;;;;;;;22.81;32.81;101456.30;107618;1254;97867;-62
2023/10/18 09:42:34;;;;;;;6.80;2.80;;;;;;;23.22;31.30;101458.48;107570;1251;97826;-64
2023/10/18 09:45:03;;;;;;;10.30;3.00;;;;;;;23.36;31.59;101447.37;107530;1255;112339;-64
2023/10/18 09:47:31;;;;;;;7.70;2.70;;;;;;;23.21;30.64;101438.71;107547;1255;110160;-64
2023/10/18 09:50:06;;;;;;;6.00;3.00;;;;;;;23.45;31.96;101433.58;107595;1251;108287;-64
2023/10/18 09:52:47;;;;;;;10.40;2.70;;;;;;;23.97;32.35;101429.84;107511;1254;97942;-64
2023/10/18 09:55:20;;;;;;;5.00;2.70;;;;;;;24.52;30.08;101422.32;107547;1253;98456;-64
2023/10/18 09:57:59;;;;;;;5.10;2.50;;;;;;;24.89;30.38;101413.81;107582;1256;110451;-63
2023/10/18 10:00:41;;;;;;;8.40;2.50;;;;;;;25.23;29.71;101407.11;107590;1254;109728;-64
2023/10/18 10:03:10;;;;;;;7.00;3.00;;;;;;;25.46;29.19;101406.90;107542;1257;109271;-63
2023/10/18 10:05:43;;;;;;;7.30;3.00;;;;;;;25.82;29.05;101406.77;107494;1257;97966;-64
2023/10/18 10:08:13;;;;;;;6.60;2.30;;;;;;;25.90;27.79;101405.10;107556;1256;98027;-63
2023/10/18 10:10:45;;;;;;;7.50;2.80;;;;;;;26.02;27.86;101402.05;104899;1251;3410614;-63
2023/10/18 10:13:18;;;;;;;5.90;3.30;;;;;;;26.39;27.35;101396.52;107588;1251;109398;-62
2023/10/18 10:16:03;;;;;;;6.00;3.10;;;;;;;26.35;27.14;101388.93;107528;1254;107460;-64
2023/10/18 10:18:35;;;;;;;9.40;3.80;;;;;;;26.53;26.78;101379.50;107507;1251;97835;-64
2023/10/18 10:21:06;;;;;;;14.60;3.50;;;;;;;26.58;25.39;101377.30;107540;1256;97883;-62
2023/10/18 10:23:38;;;;;;;7.00;3.00;;;;;;;26.59;26.81;101371.91;107599;1256;112972;-63
2023/10/18 10:26:22;;;;;;;6.90;2.80;;;;;;;26.97;26.67;101367.14;107532;1251;109760;-63
2023/10/18 10:31:51;;;;;;;;;;;;;;;27.64;25.77;101364.63;107599;1251;97911;-63
2023/10/18 10:34:38;;;;;;;8.80;2.70;;;;;;;27.76;25.69;101360.91;107465;1254;97762;-66
2023/10/18 10:37:12;;;;;;;8.30;3.10;;;;;;;27.89;25.28;101351.89;107577;1254;111730;-63
2023/10/18 10:39:49;;;;;;;5.20;2.50;;;;;;;28.05;24.81;101351.33;107609;1254;110013;-63
2023/10/18 10:42:41;;;;;;;4.00;2.50;;;;;;;28.33;25.08;101353.08;107594;1256;107432;-63
2023/10/18 10:45:23;;;;;;;7.90;2.80;;;;;;;28.73;24.53;101344.61;107605;1256;97714;-64
2023/10/18 10:47:52;;;;;;;8.20;2.60;;;;;;;29.00;24.46;101344.45;107538;1256;97837;-66
2023/10/18 10:50:53;;;;;;;8.90;2.40;;;;;;;29.26;23.88;101344.90;107557;1256;111082;-65
2023/10/18 10:53:33;;;;;;;5.50;2.50;;;;;;;29.55;22.58;101343.83;107599;1256;108756;-65
2023/10/18 10:56:27;;;;;;;9.10;2.90;;;;;;;29.51;22.89;101336.17;107510;1253;107356;-65
2023/10/18 11:01:43;;;;;;;9.20;2.80;;;;;;;29.84;23.03;101334.09;107610;1257;98367;-65
2023/10/18 11:07:42;;;;;;;5.60;2.70;;;;;;;29.72;23.10;101321.96;107285;1259;109705;-63
2023/10/18 11:10:17;;;;;;;10.30;2.20;;;;;;;28.74;23.38;101320.09;107518;1254;107470;-64
2023/10/18 11:12:46;;;;;;;11.70;2.70;;;;;;;27.79;23.28;101322.23;107561;1254;97654;-63
2023/10/18 11:15:17;;;;;;;4.70;2.30;;;;;;;26.66;23.65;101316.32;107567;1254;97935;-65
2023/10/18 11:17:48;;;;;;;5.20;2.30;;;;;;;26.40;24.57;101303.37;107538;1252;111339;-62
2023/10/18 11:20:19;;;;;;;4.30;2.10;;;;;;;26.55;24.08;101298.88;107596;1254;109327;-63
2023/10/18 11:22:50;;;;;;;7.00;2.00;;;;;;;26.48;23.78;101302.05;107568;1256;107648;-63
2023/10/18 11:25:30;;;;;;;6.60;2.50;;;;;;;26.33;23.76;101300.81;107520;1251;97852;-63
2023/10/18 11:28:18;;;;;;;9.70;2.00;;;;;;;25.98;23.40;101302.63;107600;1254;97925;-63
2023/10/18 11:30:53;;;;;;;7.00;2.00;;;;;;;25.29;24.05;101294.54;107596;1255;112346;-62
2023/10/18 11:33:59;;;;;;;4.20;1.80;;;;;;;25.09;24.47;101295.80;107555;1255;108240;-63
2023/10/18 11:36:30;;;;;;;7.90;2.30;;;;;;;25.21;24.70;101293.32;107518;1251;107689;-62
2023/10/18 11:41:44;;;;;;;4.60;1.70;;;;;;;25.33;23.97;101280.84;107578;1254;97812;-64
2023/10/18 11:44:27;;;;;;;7.60;1.60;;;;;;;24.94;24.08;101289.61;107613;1256;111624;-62
2023/10/18 11:47:00;;;;;;;3.80;1.90;;;;;;;24.47;24.02;101288.08;107591;1253;108607;-62
2023/10/18 11:49:42;;;;;;;8.30;1.90;;;;;;;24.28;24.70;101274.13;107551;1251;107277;-63
2023/10/18 11:52:21;;;;;;;7.10;2.10;;;;;;;24.21;24.82;101267.77;107550;1254;97826;-64
2023/10/18 11:54:53;;;;;;;3.80;1.70;;;;;;;24.26;24.67;101263.01;107598;1254;97794;-62
2023/10/18 11:57:29;;;;;;;6.50;1.90;;;;;;;24.20;24.56;101261.13;107541;1251;111608;-62
2023/10/18 12:00:26;;;;;;;9.80;2.10;;;;;;;23.75;24.82;101259.77;107568;1254;108887;-62
2023/10/18 12:02:55;;;;;;;5.70;1.90;;;;;;;23.18;24.73;101261.83;107527;1254;108010;-62
2023/10/18 12:05:27;;;;;;;8.60;1.40;;;;;;;22.75;24.79;101261.08;107553;1254;97852;-62
2023/10/18 12:07:57;;;;;;;6.70;2.00;;;;;;;22.74;25.29;101257.23;107602;1253;98378;-63
2023/10/18 12:10:43;;;;;;;3.90;1.80;;;;;;;22.86;25.47;101252.91;107620;1254;111899;-62
2023/10/18 12:13:14;;;;;;;4.60;1.70;;;;;;;23.15;25.44;101245.52;107598;1255;110003;-62
2023/10/18 12:15:43;;;;;;;7.10;1.90;;;;;;;23.42;25.30;101236.40;107588;1253;108649;-62
2023/10/18 12:18:14;;;;;;;4.80;2.00;;;;;;;23.55;25.55;101235.78;107601;1254;97701;-62
2023/10/18 12:20:46;;;;;;;7.50;2.30;;;;;;;23.75;25.53;101235.94;107556;1254;97805;-63
2023/10/18 12:23:18;;;;;;;4.80;1.90;;;;;;;24.05;24.81;101235.74;107586;1255;112223;-62
2023/10/18 12:25:47;;;;;;;11.50;2.50;;;;;;;24.42;24.90;101227.90;107569;1254;111132;-63
2023/10/18 12:28:27;;;;;;;3.90;1.50;;;;;;;24.98;24.24;101223.21;107564;1253;108557;-62
2023/10/18 12:31:00;;;;;;;3.10;1.60;;;;;;;25.52;23.30;101225.29;107587;1254;97846;-62
2023/10/18 12:33:34;;;;;;;4.40;1.80;;;;;;;26.10;22.68;101225.47;107590;1254;97841;-64
2023/10/18 12:36:08;;;;;;;4.00;1.70;;;;;;;26.26;22.03;101224.58;107610;1251;110512;-62
2023/10/18 12:38:38;;;;;;;2.70;1.50;;;;;;;26.41;22.36;101222.14;107534;1252;108871;-63
2023/10/18 12:43:44;;;;;;;5.40;1.40;;;;;;;27.42;21.41;101212.70;107562;1254;97822;-62
2023/10/18 12:46:15;;;;;;;9.20;2.10;;;;;;;27.85;21.35;101208.98;107579;1256;97748;-62